Time;durP1;ratioP1;P1;durP2;ratioP2;P2;SDS_P1;SDS_P2;PMS_P1;PMS_P2;Temp;Humidity;BMP_temperature;BMP_pressure;BME280_temperature;BME280_humidity;BME280_pressure;Samples;Min_cycle;Max_cycle;Signal;HPM_P1;HPM_P2
2022/09/11 00:00:51;;;;;;;113.75;55.35;;;;;;;15.65;97.33;101312.16;5006141;28;20049;-70
2022/09/11 00:03:18;;;;;;;126.15;62.58;;;;;;;15.48;98.60;101311.38;5007216;28;20068;-69
2022/09/11 00:05:44;;;;;;;128.40;61.83;;;;;;;15.67;98.28;101315.56;5007102;28;20032;-70
2022/09/11 00:08:12;;;;;;;132.48;61.78;;;;;;;15.69;98.51;101318.94;5007274;28;20113;-70
2022/09/11 00:10:39;;;;;;;122.90;64.00;;;;;;;15.74;99.05;101322.00;5006331;28;20017;-70
2022/09/11 00:13:06;;;;;;;115.63;56.70;;;;;;;15.74;98.59;101322.00;5008479;28;20034;-70
2022/09/11 00:15:37;;;;;;;139.82;60.17;;;;;;;15.72;99.44;101324.06;5007592;28;20186;-69
2022/09/11 00:18:03;;;;;;;173.30;68.25;;;;;;;15.52;100.00;101318.19;5011201;28;20049;-70
2022/09/11 00:20:28;;;;;;;181.20;70.03;;;;;;;15.57;100.00;101314.88;5012215;28;20118;-70
2022/09/11 00:22:54;;;;;;;225.45;75.30;;;;;;;15.44;100.00;101316.31;5007135;28;20161;-70
2022/09/11 00:25:19;;;;;;;205.18;72.97;;;;;;;15.54;100.00;101309.81;5011687;28;20084;-70
2022/09/11 00:27:45;;;;;;;170.98;65.35;;;;;;;15.57;100.00;101315.75;5011231;28;20030;-68
2022/09/11 00:30:13;;;;;;;254.20;81.20;;;;;;;15.63;100.00;101314.22;5011199;28;20018;-70
2022/09/11 00:32:38;;;;;;;237.60;74.75;;;;;;;15.76;100.00;101309.00;4994018;28;20022;-69
2022/09/11 00:35:04;;;;;;;200.32;69.60;;;;;;;15.68;100.00;101312.63;5011184;28;20069;-69
2022/09/11 00:37:29;;;;;;;192.43;68.15;;;;;;;15.75;100.00;101307.31;5011114;28;20431;-69
2022/09/11 00:39:54;;;;;;;250.40;73.15;;;;;;;15.76;100.00;101305.41;5012102;28;20053;-70
2022/09/11 00:42:20;;;;;;;267.02;75.35;;;;;;;15.56;100.00;101313.19;5010571;28;20112;-69
2022/09/11 00:44:48;;;;;;;285.58;80.85;;;;;;;15.39;100.00;101307.84;5010825;28;20054;-68
2022/09/11 00:47:16;;;;;;;205.35;69.93;;;;;;;15.39;100.00;101307.00;5011431;28;20022;-69
2022/09/11 00:49:50;;;;;;;239.95;70.57;;;;;;;15.36;100.00;101313.66;5011017;28;20033;-69
2022/09/11 00:52:32;;;;;;;217.43;71.20;;;;;;;15.54;100.00;101315.25;5004486;28;20028;-69
2022/09/11 00:54:57;;;;;;;;;;;;;;;15.54;100.00;101321.56;5011028;28;20129;-69
2022/09/11 00:57:27;;;;;;;253.00;67.15;;;;;;;15.61;100.00;101311.63;5010319;28;20089;-69
2022/09/11 00:59:57;;;;;;;184.95;62.03;;;;;;;15.68;100.00;101318.09;5009641;28;20426;-69
2022/09/11 01:02:25;;;;;;;269.30;68.63;;;;;;;15.63;100.00;101314.22;5010323;28;20113;-69
2022/09/11 01:04:51;;;;;;;223.57;65.00;;;;;;;15.63;100.00;101319.66;5007232;28;20030;-69
2022/09/11 01:07:19;;;;;;;270.92;69.40;;;;;;;15.59;100.00;101323.78;5010246;28;20045;-69
2022/09/11 01:09:46;;;;;;;212.75;63.83;;;;;;;15.63;100.00;101316.94;5003144;28;20089;-69
2022/09/11 01:12:22;;;;;;;232.57;62.35;;;;;;;15.30;100.00;101314.38;5009386;28;20097;-69
2022/09/11 01:15:00;;;;;;;231.30;60.05;;;;;;;15.23;100.00;101318.84;5009496;28;20026;-70
2022/09/11 01:17:34;;;;;;;231.70;60.40;;;;;;;15.22;100.00;101316.28;5010169;28;20022;-69
2022/09/11 01:20:31;;;;;;;192.02;61.10;;;;;;;15.47;100.00;101315.97;5009455;28;20026;-69
2022/09/11 01:23:11;;;;;;;246.48;56.03;;;;;;;15.39;100.00;101317.91;5009219;28;20041;-69
2022/09/11 01:25:39;;;;;;;224.10;57.10;;;;;;;15.36;100.00;101335.47;5010005;28;20061;-69
2022/09/11 01:28:14;;;;;;;233.40;58.33;;;;;;;15.18;100.00;101326.69;5010647;28;20036;-71
2022/09/11 01:30:48;;;;;;;264.20;62.45;;;;;;;15.19;100.00;101339.31;5010058;28;20034;-69
2022/09/11 01:33:32;;;;;;;232.82;55.47;;;;;;;15.14;100.00;101334.41;5010465;28;20087;-69
2022/09/11 01:36:17;;;;;;;269.20;63.55;;;;;;;15.16;100.00;101336.94;5009204;28;20054;-69
2022/09/11 01:38:45;;;;;;;209.77;60.38;;;;;;;15.32;100.00;101336.88;5009792;28;20096;-69
2022/09/11 01:41:47;;;;;;;224.43;58.95;;;;;;;15.30;100.00;101333.47;5010384;28;20026;-69
2022/09/11 01:44:25;;;;;;;235.48;59.58;;;;;;;15.40;100.00;101342.28;5000881;28;20116;-70
2022/09/11 01:46:52;;;;;;;205.93;61.10;;;;;;;15.44;100.00;101337.31;5009483;28;20025;-69
2022/09/11 01:49:26;;;;;;;310.17;65.47;;;;;;;15.42;100.00;101340.22;5009498;28;20025;-69
2022/09/11 01:51:57;;;;;;;155.40;51.88;;;;;;;15.34;100.00;101343.00;5010156;28;20166;-69
2022/09/11 01:54:28;;;;;;;240.82;58.65;;;;;;;15.45;100.00;101339.88;5005354;28;20018;-69
2022/09/11 01:57:00;;;;;;;236.00;59.13;;;;;;;15.37;100.00;101348.09;4998951;28;20029;-69
2022/09/11 01:59:33;;;;;;;288.17;64.70;;;;;;;15.55;100.00;101341.53;5009205;28;20085;-69
2022/09/11 02:02:08;;;;;;;227.95;63.53;;;;;;;15.76;100.00;101336.31;5009002;28;20022;-69
2022/09/11 02:04:40;;;;;;;207.13;60.72;;;;;;;15.94;100.00;101334.13;5008885;28;20077;-70
2022/09/11 02:07:16;;;;;;;174.07;54.08;;;;;;;15.84;100.00;101344.44;5008001;28;20026;-69
2022/09/11 02:10:07;;;;;;;202.52;60.05;;;;;;;15.83;100.00;101347.34;5007190;28;20057;-69
2022/09/11 02:12:40;;;;;;;173.55;53.67;;;;;;;15.74;100.00;101343.84;5007695;28;20017;-69
2022/09/11 02:15:07;;;;;;;263.80;72.35;;;;;;;15.77;100.00;101348.91;5008998;28;20049;-70
2022/09/11 02:17:45;;;;;;;177.57;56.95;;;;;;;15.83;100.00;101342.72;5008473;28;20041;-69
2022/09/11 02:20:11;;;;;;;214.68;64.00;;;;;;;15.81;100.00;101344.81;5008961;28;20477;-69
2022/09/11 02:22:36;;;;;;;210.43;60.97;;;;;;;15.78;100.00;101344.31;5008437;28;20013;-70
2022/09/11 02:25:03;;;;;;;214.90;64.18;;;;;;;15.85;100.00;101345.31;5010210;28;20022;-69
2022/09/11 02:27:30;;;;;;;195.15;58.08;;;;;;;15.71;100.00;101357.81;5006831;28;20018;-69
2022/09/11 02:29:57;;;;;;;228.80;66.20;;;;;;;15.75;100.00;101356.44;5009045;28;20022;-69
2022/09/11 02:32:25;;;;;;;190.25;61.83;;;;;;;15.96;100.00;101364.81;5008388;28;20025;-69
2022/09/11 02:34:54;;;;;;;183.35;58.60;;;;;;;15.85;100.00;101368.00;5008750;28;20052;-69
2022/09/11 02:37:30;;;;;;;156.70;54.10;;;;;;;15.72;100.00;101373.22;5008505;28;20021;-69
2022/09/11 02:40:05;;;;;;;205.32;59.33;;;;;;;15.85;100.00;101370.72;5007457;28;20545;-69
2022/09/11 02:42:59;;;;;;;140.98;49.15;;;;;;;15.85;100.00;101372.63;5007862;28;20037;-69
2022/09/11 02:45:40;;;;;;;220.40;58.92;;;;;;;15.62;100.00;101373.41;5008511;28;20036;-69
2022/09/11 02:48:28;;;;;;;140.98;47.00;;;;;;;15.68;100.00;101377.31;5008447;28;20688;-69
2022/09/11 02:51:00;;;;;;;179.02;52.00;;;;;;;15.51;100.00;101376.50;5009565;28;20022;-69
2022/09/11 02:53:48;;;;;;;243.27;58.67;;;;;;;15.32;100.00;101382.38;5003919;28;20022;-69
2022/09/11 02:56:30;;;;;;;195.90;54.90;;;;;;;15.37;100.00;101383.56;5050294;22;20050;-72
2022/09/11 02:59:00;;;;;;;255.25;61.17;;;;;;;15.53;100.00;101379.94;5007392;28;20055;-72
2022/09/11 03:01:25;;;;;;;163.20;50.55;;;;;;;15.47;100.00;101384.22;5028219;28;20185;-72
2022/09/11 03:03:50;;;;;;;210.63;54.85;;;;;;;15.41;100.00;101393.09;5010137;28;20021;-72
2022/09/11 03:06:26;;;;;;;242.18;58.22;;;;;;;15.32;100.00;101383.28;5010881;28;20017;-72
2022/09/11 03:08:51;;;;;;;176.38;52.38;;;;;;;15.43;100.00;101391.03;5008725;28;20022;-72
2022/09/11 03:11:18;;;;;;;177.75;51.85;;;;;;;15.61;100.00;101390.78;5010062;28;20041;-72
2022/09/11 03:13:44;;;;;;;196.35;54.50;;;;;;;15.74;100.00;101388.38;5010419;28;20018;-71
2022/09/11 03:16:11;;;;;;;154.90;49.05;;;;;;;15.65;100.00;101389.44;5008838;28;20112;-71
2022/09/11 03:18:37;;;;;;;159.13;49.40;;;;;;;15.64;100.00;101392.34;5008212;28;20075;-70
2022/09/11 03:21:03;;;;;;;255.65;54.10;;;;;;;15.62;100.00;101395.25;5009324;28;20029;-71
2022/09/11 03:23:29;;;;;;;174.45;47.53;;;;;;;15.73;100.00;101391.28;5008893;28;20036;-72
2022/09/11 03:25:55;;;;;;;202.25;53.22;;;;;;;15.67;100.00;101397.47;5008784;28;20049;-73
2022/09/11 03:28:23;;;;;;;241.48;54.13;;;;;;;15.74;100.00;101403.91;5008757;28;20089;-73
2022/09/11 03:30:49;;;;;;;145.35;42.55;;;;;;;15.66;100.00;101402.06;5009446;28;20025;-73
2022/09/11 03:33:18;;;;;;;300.05;56.63;;;;;;;15.64;100.00;101398.66;5008291;28;20014;-73
2022/09/11 03:35:44;;;;;;;293.20;57.42;;;;;;;15.73;100.00;101391.28;5010898;28;20080;-73
2022/09/11 03:38:10;;;;;;;193.10;48.85;;;;;;;15.79;99.68;101396.03;5008472;28;20021;-73
2022/09/11 03:40:36;;;;;;;171.18;44.75;;;;;;;15.76;100.00;101396.38;5009438;28;20026;-72
2022/09/11 03:43:01;;;;;;;183.15;45.60;;;;;;;15.60;100.00;101408.22;5008464;28;20044;-73
2022/09/11 03:45:27;;;;;;;105.05;37.15;;;;;;;15.68;100.00;101402.72;5009709;28;20029;-72
2022/09/11 03:47:52;;;;;;;179.48;45.28;;;;;;;15.53;100.00;101396.31;5007715;28;20025;-72
2022/09/11 03:50:18;;;;;;;206.93;48.33;;;;;;;15.62;100.00;101399.88;5008684;28;20030;-74
2022/09/11 03:52:43;;;;;;;148.32;41.80;;;;;;;15.82;99.58;101389.34;5011666;28;20041;-73
2022/09/11 03:55:08;;;;;;;96.72;33.80;;;;;;;15.64;99.42;101400.53;5013125;28;20030;-73
2022/09/11 03:57:35;;;;;;;144.63;38.70;;;;;;;15.68;99.49;101396.41;5012815;28;20395;-73
2022/09/11 04:00:02;;;;;;;107.07;32.33;;;;;;;15.40;100.00;101394.13;5012476;28;20064;-73
2022/09/11 04:02:28;;;;;;;79.78;29.38;;;;;;;15.50;100.00;101393.06;5011639;28;20528;-73
2022/09/11 04:04:53;;;;;;;127.65;36.10;;;;;;;15.58;99.97;101398.47;5016031;28;20061;-73
2022/09/11 04:07:18;;;;;;;116.03;35.63;;;;;;;15.65;98.98;101394.06;5014127;28;20021;-73
2022/09/11 04:09:45;;;;;;;147.52;36.95;;;;;;;15.62;99.01;101399.88;5013962;28;20075;-73
2022/09/11 04:12:11;;;;;;;105.82;34.90;;;;;;;15.30;100.00;101401.66;5012009;28;20020;-74
2022/09/11 04:14:37;;;;;;;110.22;34.80;;;;;;;15.23;100.00;101400.69;5012598;28;20029;-72
2022/09/11 04:17:03;;;;;;;91.20;29.17;;;;;;;15.10;100.00;101411.28;5013498;28;20037;-73
2022/09/11 04:19:28;;;;;;;121.35;36.00;;;;;;;15.21;100.00;101413.66;5028798;28;20108;-73
2022/09/11 04:21:54;;;;;;;123.07;36.10;;;;;;;14.98;100.00;101420.84;5013282;28;20026;-73
2022/09/11 04:24:19;;;;;;;103.07;33.47;;;;;;;14.85;100.00;101414.06;5011761;28;20018;-73
2022/09/11 04:26:45;;;;;;;85.10;31.80;;;;;;;14.99;100.00;101425.28;5012162;28;20036;-73
2022/09/11 04:29:11;;;;;;;107.70;35.42;;;;;;;14.98;100.00;101418.13;5011561;28;20072;-74
2022/09/11 04:31:37;;;;;;;130.02;36.63;;;;;;;15.04;100.00;101420.16;5012885;28;20010;-74
2022/09/11 04:34:02;;;;;;;106.63;35.92;;;;;;;14.85;100.00;101419.50;5012096;28;20087;-73
2022/09/11 04:36:28;;;;;;;84.30;31.98;;;;;;;14.91;100.00;101424.28;5012572;28;20025;-73
2022/09/11 04:38:56;;;;;;;117.38;36.95;;;;;;;15.02;100.00;101419.50;5012247;28;20467;-74
2022/09/11 04:41:23;;;;;;;95.30;34.97;;;;;;;15.10;100.00;101416.75;5012168;28;20064;-74
2022/09/11 04:43:53;;;;;;;99.40;36.85;;;;;;;15.19;100.00;101410.22;5012297;28;20398;-71
2022/09/11 04:46:18;;;;;;;102.65;32.25;;;;;;;15.24;100.00;101417.91;5013517;28;20371;-74
2022/09/11 04:48:50;;;;;;;78.28;31.13;;;;;;;15.36;100.00;101417.34;5011893;28;20033;-74
2022/09/11 04:51:34;;;;;;;;;;;;;;;15.42;99.40;101416.63;5005285;28;20067;-74
2022/09/11 04:54:00;;;;;;;97.90;33.08;;;;;;;15.21;100.00;101419.09;5011198;28;19921;-73
2022/09/11 04:56:29;;;;;;;103.40;36.55;;;;;;;15.06;100.00;101427.16;5011533;28;20160;-73
2022/09/11 04:58:57;;;;;;;112.80;36.45;;;;;;;14.90;100.00;101444.41;5011403;28;20392;-73
2022/09/11 05:01:24;;;;;;;101.57;36.67;;;;;;;14.92;100.00;101442.34;5012618;28;20030;-73
2022/09/11 05:03:49;;;;;;;171.07;41.80;;;;;;;14.91;100.00;101446.09;5012132;28;20045;-73
2022/09/11 05:06:15;;;;;;;151.00;39.25;;;;;;;14.78;100.00;101445.78;5013081;28;20032;-73
2022/09/11 05:08:43;;;;;;;120.57;40.05;;;;;;;14.98;100.00;101445.41;5011211;28;20032;-73
2022/09/11 05:11:13;;;;;;;97.97;35.55;;;;;;;15.03;100.00;101453.91;5012485;28;20390;-73
2022/09/11 05:13:39;;;;;;;87.20;30.77;;;;;;;14.96;100.00;101452.91;5011762;28;20070;-74
2022/09/11 05:16:08;;;;;;;125.53;33.50;;;;;;;14.78;100.00;101448.50;5010415;28;20060;-71
2022/09/11 05:18:34;;;;;;;94.97;32.55;;;;;;;14.98;100.00;101453.59;5011128;28;20024;-74
2022/09/11 05:21:03;;;;;;;115.47;34.13;;;;;;;15.12;100.00;101458.31;5010923;28;20034;-71
2022/09/11 05:23:30;;;;;;;80.15;28.90;;;;;;;14.95;100.00;101462.97;5012010;28;20021;-71
2022/09/11 05:26:01;;;;;;;91.30;32.15;;;;;;;15.23;100.00;101460.69;5010228;28;20038;-71
2022/09/11 05:28:28;;;;;;;127.07;31.50;;;;;;;15.28;100.00;101458.31;5011579;28;20029;-74
2022/09/11 05:30:54;;;;;;;93.55;30.65;;;;;;;15.34;100.00;101457.59;5010042;28;20028;-74
2022/09/11 05:33:22;;;;;;;104.35;32.75;;;;;;;15.09;100.00;101469.59;5010845;28;20030;-72
2022/09/11 05:35:49;;;;;;;112.38;34.05;;;;;;;15.29;100.00;101465.44;5010103;28;20022;-72
2022/09/11 05:38:15;;;;;;;102.63;33.60;;;;;;;15.44;100.00;101474.59;5009455;28;20028;-73
2022/09/11 05:40:49;;;;;;;85.32;30.70;;;;;;;15.21;100.00;101484.56;5009400;28;20026;-71
2022/09/11 05:43:16;;;;;;;86.85;31.35;;;;;;;15.24;100.00;101483.38;5001270;28;20104;-71
2022/09/11 05:45:44;;;;;;;93.85;32.40;;;;;;;15.23;100.00;101482.53;5010080;28;20116;-71
2022/09/11 05:48:10;;;;;;;73.47;28.65;;;;;;;15.37;100.00;101489.97;5009781;28;20097;-71
2022/09/11 05:50:36;;;;;;;73.10;28.60;;;;;;;15.35;100.00;101492.03;5010249;28;20112;-71
2022/09/11 05:53:02;;;;;;;76.05;30.45;;;;;;;15.61;99.79;101490.94;5009793;28;20034;-71
2022/09/11 05:55:27;;;;;;;71.50;29.95;;;;;;;15.75;99.54;101492.97;5009628;28;20034;-71
2022/09/11 05:57:53;;;;;;;57.15;25.27;;;;;;;15.89;98.12;101484.03;5010247;28;20518;-71
2022/09/11 06:00:20;;;;;;;56.70;27.25;;;;;;;15.79;98.36;101494.31;5008868;28;20032;-71
2022/09/11 06:02:47;;;;;;;61.50;27.45;;;;;;;15.97;97.63;101486.72;5009542;28;20025;-71
2022/09/11 06:05:14;;;;;;;48.78;23.88;;;;;;;16.14;96.64;101503.88;5010883;28;20025;-72
2022/09/11 06:07:39;;;;;;;46.33;24.23;;;;;;;16.09;96.48;101494.50;5009425;28;20688;-72
2022/09/11 06:10:06;;;;;;;42.60;22.13;;;;;;;16.20;95.97;101502.31;5010724;28;20553;-71
2022/09/11 06:12:31;;;;;;;39.00;20.73;;;;;;;16.27;95.47;101497.81;5010516;28;20022;-72
2022/09/11 06:14:57;;;;;;;49.05;24.80;;;;;;;16.15;95.68;101504.72;5008401;28;20022;-71
2022/09/11 06:17:23;;;;;;;41.25;21.63;;;;;;;16.11;96.41;101503.41;5010406;28;20506;-72
2022/09/11 06:19:48;;;;;;;41.30;23.42;;;;;;;16.21;95.65;101493.06;5009589;28;20033;-72
2022/09/11 06:22:13;;;;;;;34.80;19.90;;;;;;;16.27;96.06;101504.13;5008847;28;20025;-73
2022/09/11 06:24:39;;;;;;;36.70;21.90;;;;;;;16.34;95.07;101497.94;5009391;28;20056;-72
2022/09/11 06:27:04;;;;;;;33.60;19.52;;;;;;;16.31;94.92;101504.63;5008757;28;20025;-72
2022/09/11 06:29:32;;;;;;;34.33;19.55;;;;;;;16.37;95.25;101498.44;5009515;28;20018;-72
2022/09/11 06:31:58;;;;;;;31.80;18.15;;;;;;;16.51;94.58;101505.88;5008956;28;20026;-74
2022/09/11 06:34:25;;;;;;;35.83;19.10;;;;;;;16.49;95.04;101502.44;5009035;28;20044;-73
2022/09/11 06:36:50;;;;;;;30.25;17.05;;;;;;;16.64;94.52;101509.88;5009287;28;20032;-73
2022/09/11 06:39:16;;;;;;;32.45;18.00;;;;;;;16.55;94.20;101512.66;5008772;28;20108;-73
2022/09/11 06:41:42;;;;;;;24.48;15.63;;;;;;;16.71;93.64;101510.88;5008878;28;20044;-73
2022/09/11 06:44:08;;;;;;;23.20;15.23;;;;;;;16.74;93.14;101518.69;5008679;28;20120;-73
2022/09/11 06:46:34;;;;;;;18.23;12.57;;;;;;;16.83;92.75;101511.31;5009374;28;20029;-72
2022/09/11 06:49:01;;;;;;;18.48;10.40;;;;;;;16.68;92.42;101522.13;5007858;28;20032;-71
2022/09/11 06:51:27;;;;;;;18.08;10.95;;;;;;;16.44;93.08;101521.28;5007862;28;20081;-72
2022/09/11 06:53:57;;;;;;;14.32;10.55;;;;;;;16.73;91.96;101517.00;5008168;28;20127;-72
2022/09/11 06:56:23;;;;;;;15.60;10.07;;;;;;;16.65;92.62;101522.50;5007454;28;20034;-72
2022/09/11 06:58:49;;;;;;;22.35;10.73;;;;;;;16.70;92.59;101520.13;5007845;28;20109;-72
2022/09/11 07:01:19;;;;;;;12.57;10.05;;;;;;;16.66;93.09;101529.69;5007286;28;20034;-72
2022/09/11 07:03:48;;;;;;;19.80;12.13;;;;;;;16.68;93.16;101522.13;5007742;28;20169;-71
2022/09/11 07:06:16;;;;;;;18.23;14.07;;;;;;;16.61;93.58;101526.63;5007298;28;20055;-73
2022/09/11 07:08:41;;;;;;;19.38;14.20;;;;;;;16.62;93.29;101525.59;5008137;28;20029;-72
2022/09/11 07:11:10;;;;;;;17.85;14.07;;;;;;;16.51;93.59;101527.72;5008055;28;20079;-72
2022/09/11 07:13:36;;;;;;;21.95;15.30;;;;;;;16.31;94.30;101526.50;5009631;28;20026;-72
2022/09/11 07:16:04;;;;;;;22.40;15.63;;;;;;;16.31;94.87;101534.69;5008329;28;20033;-72
2022/09/11 07:18:35;;;;;;;20.38;15.13;;;;;;;16.34;94.30;101530.75;5008108;28;20087;-72
2022/09/11 07:21:05;;;;;;;26.80;19.50;;;;;;;16.46;93.99;101530.16;5006865;28;20021;-72
2022/09/11 07:23:30;;;;;;;17.35;14.57;;;;;;;16.40;94.28;101532.75;5009908;28;20021;-72
2022/09/11 07:25:57;;;;;;;16.92;12.80;;;;;;;16.29;94.14;101534.00;5008647;28;20040;-72
2022/09/11 07:28:24;;;;;;;21.00;14.38;;;;;;;16.50;93.22;101531.50;5007640;28;20022;-72
2022/09/11 07:30:49;;;;;;;20.20;13.63;;;;;;;16.51;93.38;101530.47;5008467;28;20491;-72
2022/09/11 07:33:15;;;;;;;15.20;12.18;;;;;;;16.71;92.71;101527.28;5008619;28;20060;-72
2022/09/11 07:35:40;;;;;;;14.20;11.40;;;;;;;16.74;91.80;101537.84;5009048;28;20137;-74
2022/09/11 07:38:05;;;;;;;16.70;12.25;;;;;;;16.78;91.58;101539.19;5010613;28;20064;-71
2022/09/11 07:40:31;;;;;;;16.13;11.20;;;;;;;16.75;92.09;101536.81;5003986;28;20053;-71
2022/09/11 07:42:56;;;;;;;13.65;10.98;;;;;;;17.17;89.87;101538.19;5008836;28;20026;-71
2022/09/11 07:45:22;;;;;;;14.48;9.32;;;;;;;17.06;89.42;101548.53;5007411;28;20109;-71
2022/09/11 07:47:47;;;;;;;13.10;9.75;;;;;;;17.06;89.76;101548.53;5001131;28;20030;-73
2022/09/11 07:50:12;;;;;;;12.85;8.50;;;;;;;17.34;88.86;101545.19;5006379;28;20045;-73
2022/09/11 07:52:38;;;;;;;9.35;7.57;;;;;;;17.44;87.75;101545.78;5002655;28;20156;-72
2022/09/11 07:55:04;;;;;;;10.27;6.88;;;;;;;17.56;86.26;101555.22;5007860;28;20061;-73
2022/09/11 07:57:30;;;;;;;9.32;6.63;;;;;;;17.66;85.46;101549.47;5027243;28;20709;-72
2022/09/11 07:59:56;;;;;;;11.30;7.35;;;;;;;17.58;86.39;101547.66;5008764;28;20029;-73
2022/09/11 08:02:22;;;;;;;8.70;6.05;;;;;;;17.41;86.96;101557.13;5007658;28;20026;-73
2022/09/11 08:04:47;;;;;;;10.07;6.13;;;;;;;17.40;87.41;101560.88;5013320;28;20025;-73
2022/09/11 08:07:12;;;;;;;8.55;6.80;;;;;;;17.27;87.49;101555.19;5009117;28;20045;-73
2022/09/11 08:09:38;;;;;;;13.00;8.13;;;;;;;17.03;88.51;101569.94;5008193;28;20037;-74
2022/09/11 08:12:04;;;;;;;11.93;8.98;;;;;;;17.12;88.22;101567.97;5009021;28;20433;-73
2022/09/11 08:14:30;;;;;;;11.70;9.00;;;;;;;16.79;89.64;101569.09;5007865;28;20029;-73
2022/09/11 08:16:55;;;;;;;13.38;9.25;;;;;;;17.05;88.79;101574.19;5010245;28;20033;-73
2022/09/11 08:19:22;;;;;;;11.70;8.05;;;;;;;17.14;85.83;101572.22;5008614;28;20030;-73
2022/09/11 08:21:48;;;;;;;8.50;5.90;;;;;;;17.52;84.88;101570.31;5008668;28;20022;-74
2022/09/11 08:24:23;;;;;;;9.23;6.20;;;;;;;17.59;83.93;101581.38;5009203;28;20133;-73
2022/09/11 08:26:49;;;;;;;8.68;6.45;;;;;;;17.62;83.49;101584.63;5011493;28;20014;-74
2022/09/11 08:29:15;;;;;;;8.82;6.82;;;;;;;17.56;84.88;101587.25;5008612;28;20068;-73
2022/09/11 08:31:40;;;;;;;8.63;7.10;;;;;;;17.36;85.12;101586.94;5012539;28;20046;-73
2022/09/11 08:34:06;;;;;;;11.27;7.43;;;;;;;17.36;85.65;101592.41;5008741;28;20037;-74
2022/09/11 08:36:31;;;;;;;8.38;6.90;;;;;;;17.29;85.23;101588.72;5009411;28;20026;-74
2022/09/11 08:39:01;;;;;;;5.95;5.25;;;;;;;17.33;85.03;101592.75;5010605;28;20029;-74
2022/09/11 08:41:47;;;;;;;6.63;5.80;;;;;;;17.67;84.06;101599.63;5011220;28;20022;-74
2022/09/11 08:44:54;;;;;;;6.75;5.78;;;;;;;18.02;82.33;101593.44;5011998;28;20026;-74
2022/09/11 08:47:26;;;;;;;8.57;5.70;;;;;;;17.51;83.70;101596.00;4971177;28;20538;-73
2022/09/11 08:49:57;;;;;;;8.63;5.13;;;;;;;17.73;82.98;101598.91;4994983;28;20061;-74
2022/09/11 08:52:23;;;;;;;7.80;4.53;;;;;;;17.87;82.30;101598.09;5011239;28;20010;-74
2022/09/11 08:54:49;;;;;;;8.32;4.82;;;;;;;17.82;82.87;101597.78;5011677;28;20024;-74
2022/09/11 08:57:39;;;;;;;6.50;5.50;;;;;;;17.95;82.00;101603.47;5011654;28;20025;-73
2022/09/11 09:00:21;;;;;;;5.63;4.57;;;;;;;18.14;81.49;101602.88;5010448;28;20056;-73
2022/09/11 09:03:01;;;;;;;5.32;4.43;;;;;;;18.44;80.82;101600.94;5013054;28;20026;-74
2022/09/11 09:05:44;;;;;;;8.00;5.05;;;;;;;18.44;79.61;101602.84;5012400;28;20037;-74
2022/09/11 09:08:38;;;;;;;6.25;4.30;;;;;;;17.86;80.23;101604.56;5020751;28;20053;-74
2022/09/11 09:14:04;;;;;;;5.43;3.75;;;;;;;17.76;80.50;101604.03;5024867;28;20095;-69
2022/09/11 09:16:50;;;;;;;4.40;3.33;;;;;;;18.13;80.04;101601.19;5028766;28;20131;-70
2022/09/11 09:19:34;;;;;;;3.38;2.92;;;;;;;18.72;76.80;101593.94;5029346;28;20021;-70
2022/09/11 09:22:02;;;;;;;4.30;2.90;;;;;;;19.18;75.52;101595.22;5018792;28;20403;-70
2022/09/11 09:24:34;;;;;;;4.95;3.13;;;;;;;19.59;73.56;101597.28;5022490;28;20056;-69
2022/09/11 09:27:04;;;;;;;4.13;2.53;;;;;;;20.14;71.80;101598.25;5027390;28;20065;-70
2022/09/11 09:29:38;;;;;;;3.42;2.58;;;;;;;19.69;72.03;101597.78;5031687;28;20025;-70
2022/09/11 09:32:10;;;;;;;5.45;2.85;;;;;;;19.27;72.84;101603.31;5028909;28;20025;-70
2022/09/11 09:34:39;;;;;;;6.13;4.35;;;;;;;19.17;73.74;101603.66;5028836;28;20112;-70
2022/09/11 09:37:14;;;;;;;14.82;4.60;;;;;;;18.77;74.79;101596.91;5029523;28;20037;-69
2022/09/11 09:39:40;;;;;;;2.60;2.40;;;;;;;18.70;74.73;101597.69;5028450;28;20040;-70
2022/09/11 09:42:22;;;;;;;6.82;2.80;;;;;;;18.54;75.28;101600.66;5030332;28;20026;-70
2022/09/11 09:45:25;;;;;;;3.63;2.30;;;;;;;18.44;75.82;101597.34;5029504;28;20033;-70
2022/09/11 09:47:50;;;;;;;2.88;2.45;;;;;;;19.23;74.38;101598.25;5033097;28;20022;-69
2022/09/11 09:50:27;;;;;;;4.70;2.90;;;;;;;19.73;72.53;101599.06;5028098;28;20013;-69
2022/09/11 09:53:17;;;;;;;3.10;2.10;;;;;;;19.51;72.98;101597.41;5029804;28;20021;-70
2022/09/11 09:55:43;;;;;;;3.92;2.90;;;;;;;19.12;74.00;101596.03;5029198;28;20037;-70
2022/09/11 09:58:09;;;;;;;3.10;2.55;;;;;;;19.53;72.25;101598.06;5028984;28;20112;-69
2022/09/11 10:00:36;;;;;;;4.63;2.35;;;;;;;19.47;72.93;101607.09;5029203;28;20154;-70
2022/09/11 10:03:18;;;;;;;6.40;2.88;;;;;;;19.23;73.12;101603.75;5028542;28;20021;-71
2022/09/11 10:05:44;;;;;;;3.05;2.03;;;;;;;19.10;72.04;101609.06;5029552;28;20037;-71
2022/09/11 10:08:32;;;;;;;5.68;2.10;;;;;;;19.32;71.38;101611.81;5028957;28;20087;-71
2022/09/11 10:11:06;;;;;;;4.03;1.95;;;;;;;19.56;70.99;101619.66;5030229;28;20025;-71
2022/09/11 10:13:35;;;;;;;9.52;5.20;;;;;;;19.84;68.83;101605.91;5027681;28;20025;-69
2022/09/11 10:16:03;;;;;;;1.75;1.65;;;;;;;20.31;66.47;101618.88;5028229;28;20037;-69
2022/09/11 10:18:31;;;;;;;4.68;1.80;;;;;;;20.72;65.58;101607.00;5029734;28;20017;-70
2022/09/11 10:21:20;;;;;;;3.33;2.08;;;;;;;21.19;64.91;101610.69;5030096;28;20536;-70
2022/09/11 10:24:10;;;;;;;1.90;1.73;;;;;;;20.75;66.18;101609.34;5020305;28;20060;-70
2022/09/11 10:26:48;;;;;;;6.32;1.88;;;;;;;20.68;67.07;101608.47;5018836;28;20418;-69
2022/09/11 10:29:28;;;;;;;5.80;2.20;;;;;;;20.70;66.19;101611.00;5018747;28;20028;-69
2022/09/11 10:32:03;;;;;;;5.03;1.95;;;;;;;20.06;67.88;101598.44;5026276;28;20032;-70
2022/09/11 10:34:36;;;;;;;4.07;2.10;;;;;;;19.79;68.50;101609.25;5028021;28;20028;-70
2022/09/11 10:37:18;;;;;;;2.67;2.03;;;;;;;19.50;69.99;101612.19;5028622;28;20064;-70
2022/09/11 10:39:45;;;;;;;3.75;2.17;;;;;;;19.79;68.49;101609.25;5029567;28;20190;-71
2022/09/11 10:42:16;;;;;;;5.45;2.30;;;;;;;20.08;67.74;101607.31;5028847;28;20021;-71
2022/09/11 10:44:46;;;;;;;3.92;2.10;;;;;;;20.63;67.53;101599.13;5028874;28;20120;-71
2022/09/11 10:47:24;;;;;;;2.42;1.58;;;;;;;21.04;65.26;101605.38;5035058;28;20017;-71
2022/09/11 10:50:09;;;;;;;7.00;1.85;;;;;;;20.37;66.14;101610.84;5025236;28;20025;-70
2022/09/11 10:53:05;;;;;;;3.67;1.95;;;;;;;19.82;67.84;101612.66;5027431;28;20358;-71
2022/09/11 10:55:39;;;;;;;2.17;1.63;;;;;;;19.24;69.75;101608.19;5027348;28;20025;-70
2022/09/11 10:58:12;;;;;;;3.03;1.85;;;;;;;19.99;67.85;101603.03;5027800;28;20063;-71
2022/09/11 11:00:38;;;;;;;3.38;1.75;;;;;;;20.53;66.14;101594.00;5028616;28;20033;-69
2022/09/11 11:03:05;;;;;;;2.88;1.92;;;;;;;20.75;64.52;101592.81;5027943;28;20036;-70
2022/09/11 11:05:55;;;;;;;5.50;1.60;;;;;;;21.15;62.99;101592.88;5027354;28;20049;-70
2022/09/11 11:08:29;;;;;;;4.60;1.38;;;;;;;21.94;61.44;101592.84;5027270;28;20017;-70
2022/09/11 11:11:02;;;;;;;2.05;1.60;;;;;;;21.80;61.24;101596.72;5027898;28;20017;-70
2022/09/11 11:14:06;;;;;;;3.50;1.60;;;;;;;21.11;62.31;101602.63;5028884;28;20554;-70
2022/09/11 11:16:45;;;;;;;1.38;1.27;;;;;;;21.27;61.83;101596.72;5028715;28;20154;-68
2022/09/11 11:19:42;;;;;;;6.40;1.27;;;;;;;22.27;58.86;101597.44;5027537;28;20025;-67
2022/09/11 11:22:38;;;;;;;7.05;1.90;;;;;;;22.31;56.65;101604.25;5026787;28;20112;-68
2022/09/11 11:25:13;;;;;;;1.95;1.23;;;;;;;21.74;58.30;101594.81;5027703;28;20124;-67